| time (UTC) | temp F | wind direction | speed MPH | gust MPH | rain 1hr in | rain 24hr in | rain mn in | humidity % | barometer mb |
| 20260502234011 | 63 | 182 | 1.0 | 3.0 | 0.00 | 0.00 | 0.00 | 38 | 1011.3 |
| 20260502233508 | 63 | 153 | 2.0 | 4.0 | 0.00 | 0.00 | 0.00 | 37 | 1011.3 |
| 20260502233016 | 63 | 208 | 2.0 | 4.0 | 0.00 | 0.00 | 0.00 | 40 | 1011.5 |
| 20260502232508 | 63 | 118 | 2.0 | 7.0 | 0.00 | 0.00 | 0.00 | 40 | 1011.5 |
| 20260502232011 | 63 | 240 | 3.0 | 7.0 | 0.00 | 0.00 | 0.00 | 39 | 1011.7 |
| 20260502231517 | 63 | 240 | 5.0 | 9.0 | 0.00 | 0.00 | 0.00 | 37 | 1011.6 |
| 20260502231007 | 63 | 214 | 6.0 | 10.0 | 0.00 | 0.00 | 0.00 | 37 | 1011.7 |
| 20260502230508 | 63 | 250 | 5.0 | 12.0 | 0.00 | 0.00 | 0.00 | 37 | 1011.9 |
| 20260502225508 | 64 | 253 | 8.0 | 12.0 | 0.00 | 0.00 | 0.00 | 37 | 1011.8 |
| 20260502225009 | 64 | 263 | 6.0 | 12.0 | 0.00 | 0.00 | 0.00 | 36 | 1011.8 |
| 20260502224514 | 64 | 248 | 8.0 | 12.0 | 0.00 | 0.00 | 0.00 | 35 | 1011.8 |
| 20260502224010 | 64 | 252 | 4.0 | 13.0 | 0.00 | 0.00 | 0.00 | 34 | 1011.9 |
| 20260502223509 | 64 | 272 | 6.0 | 13.0 | 0.00 | 0.00 | 0.00 | 34 | 1012.0 |
| 20260502223024 | 65 | 238 | 8.0 | 13.0 | 0.00 | 0.00 | 0.00 | 35 | 1012.1 |
| 20260502222508 | 65 | 260 | 4.0 | 10.0 | 0.00 | 0.00 | 0.00 | 34 | 1012.1 |
| 20260502222007 | 65 | 267 | 7.0 | 13.0 | 0.00 | 0.00 | 0.00 | 34 | 1012.2 |
| 20260502221516 | 65 | 281 | 9.0 | 13.0 | 0.00 | 0.00 | 0.00 | 34 | 1012.2 |
| 20260502221008 | 65 | 253 | 7.0 | 13.0 | 0.00 | 0.00 | 0.00 | 34 | 1012.2 |
| 20260502220511 | 65 | 257 | 8.0 | 10.0 | 0.00 | 0.00 | 0.00 | 36 | 1012.4 |
| 20260502220025 | 66 | 225 | 5.0 | 11.0 | 0.00 | 0.00 | 0.00 | 36 | 1012.4 |
| 20260502215510 | 66 | 246 | 7.0 | 15.0 | 0.00 | 0.00 | 0.00 | 32 | 1012.4 |
| 20260502215009 | 66 | 245 | 8.0 | 15.0 | 0.00 | 0.00 | 0.00 | 35 | 1012.5 |
| 20260502214522 | 66 | 246 | 7.0 | 15.0 | 0.00 | 0.00 | 0.00 | 34 | 1012.5 |
| 20260502214010 | 66 | 217 | 10.0 | 15.0 | 0.00 | 0.00 | 0.00 | 32 | 1012.7 |
| 20260502213511 | 67 | 227 | 7.0 | 14.0 | 0.00 | 0.00 | 0.00 | 30 | 1012.8 |
| 20260502213028 | 67 | 240 | 10.0 | 16.0 | 0.00 | 0.00 | 0.00 | 31 | 1012.8 |
| 20260502212511 | 67 | 246 | 11.0 | 16.0 | 0.00 | 0.00 | 0.00 | 31 | 1012.9 |
| 20260502212008 | 67 | 266 | 8.0 | 15.0 | 0.00 | 0.00 | 0.00 | 33 | 1013.0 |
| 20260502211518 | 67 | 221 | 6.0 | 15.0 | 0.00 | 0.00 | 0.00 | 31 | 1013.1 |
| 20260502211008 | 67 | 263 | 8.0 | 15.0 | 0.00 | 0.00 | 0.00 | 31 | 1013.2 |
| 20260502210507 | 67 | 257 | 8.0 | 16.0 | 0.00 | 0.00 | 0.00 | 31 | 1013.4 |
| 20260502210022 | 67 | 252 | 11.0 | 16.0 | 0.00 | 0.00 | 0.00 | 33 | 1013.6 |
| 20260502205508 | 67 | 262 | 7.0 | 14.0 | 0.00 | 0.00 | 0.00 | 33 | 1013.6 |
| 20260502205008 | 66 | 254 | 10.0 | 17.0 | 0.00 | 0.00 | 0.00 | 34 | 1013.6 |
| 20260502204522 | 66 | 282 | 8.0 | 17.0 | 0.00 | 0.00 | 0.00 | 34 | 1013.6 |
| 20260502204008 | 66 | 259 | 9.0 | 17.0 | 0.00 | 0.00 | 0.00 | 32 | 1013.8 |
| 20260502203512 | 66 | 240 | 9.0 | 17.0 | 0.00 | 0.00 | 0.00 | 32 | 1013.9 |
| 20260502203024 | 66 | 241 | 10.0 | 15.0 | 0.00 | 0.00 | 0.00 | 30 | 1013.9 |
| 20260502202508 | 66 | 246 | 9.0 | 15.0 | 0.00 | 0.00 | 0.00 | 35 | 1014.0 |
| 20260502202010 | 65 | 282 | 10.0 | 15.0 | 0.00 | 0.00 | 0.00 | 34 | 1014.2 |
| 20260502201535 | 65 | 232 | 9.0 | 16.0 | 0.00 | 0.00 | 0.00 | 33 | 1014.2 |
| 20260502201010 | 65 | 276 | 11.0 | 18.0 | 0.00 | 0.00 | 0.00 | 34 | 1014.3 |
| 20260502200510 | 65 | 265 | 14.0 | 18.0 | 0.00 | 0.00 | 0.00 | 30 | 1014.4 |
| 20260502200017 | 65 | 263 | 9.0 | 17.0 | 0.00 | 0.00 | 0.00 | 34 | 1014.5 |
| 20260502195508 | 65 | 240 | 7.0 | 15.0 | 0.00 | 0.00 | 0.00 | 34 | 1014.7 |
| 20260502195009 | 65 | 240 | 10.0 | 16.0 | 0.00 | 0.00 | 0.00 | 31 | 1014.8 |
| 20260502194534 | 65 | 275 | 10.0 | 16.0 | 0.00 | 0.00 | 0.00 | 35 | 1015.0 |
| 20260502194008 | 64 | 257 | 9.0 | 13.0 | 0.00 | 0.00 | 0.00 | 32 | 1015.0 |
| 20260502193508 | 64 | 264 | 9.0 | 13.0 | 0.00 | 0.00 | 0.00 | 36 | 1015.2 |
| 20260502193020 | 63 | 250 | 7.0 | 15.0 | 0.00 | 0.00 | 0.00 | 33 | 1015.2 |
| 20260502192512 | 63 | 216 | 9.0 | 16.0 | 0.00 | 0.00 | 0.00 | 32 | 1015.3 |
| 20260502192013 | 63 | 253 | 10.0 | 16.0 | 0.00 | 0.00 | 0.00 | 33 | 1015.3 |
| 20260502191536 | 63 | 247 | 11.0 | 16.0 | 0.00 | 0.00 | 0.00 | 33 | 1015.4 |
| 20260502190510 | 62 | 265 | 10.0 | 14.0 | 0.00 | 0.00 | 0.00 | 35 | 1015.5 |
| 20260502190026 | 62 | 237 | 9.0 | 17.0 | 0.00 | 0.00 | 0.00 | 35 | 1015.7 |
| 20260502185509 | 62 | 293 | 9.0 | 17.0 | 0.00 | 0.00 | 0.00 | 34 | 1015.8 |
| 20260502185010 | 62 | 247 | 12.0 | 15.0 | 0.00 | 0.00 | 0.00 | 34 | 1015.8 |
| 20260502184530 | 62 | 209 | 6.0 | 14.0 | 0.00 | 0.00 | 0.00 | 35 | 1015.9 |
| 20260502184009 | 62 | 262 | 10.0 | 15.0 | 0.00 | 0.00 | 0.00 | 33 | 1016.2 |
| 20260502183514 | 61 | 219 | 9.0 | 15.0 | 0.00 | 0.00 | 0.00 | 35 | 1016.3 |
| 20260502183021 | 61 | 262 | 10.0 | 15.0 | 0.00 | 0.00 | 0.00 | 34 | 1016.3 |
| 20260502182511 | 61 | 221 | 7.0 | 16.0 | 0.00 | 0.00 | 0.00 | 34 | 1016.3 |
| 20260502181011 | 61 | 267 | 7.0 | 12.0 | 0.00 | 0.00 | 0.00 | 36 | 1016.6 |
| 20260502180509 | 61 | 285 | 7.0 | 14.0 | 0.00 | 0.00 | 0.00 | 32 | 1016.7 |
| 20260502164010 | 58 | 290 | 13.0 | 19.0 | 0.00 | 0.00 | 0.00 | 36 | 1017.9 |
| 20260502163507 | 58 | 303 | 8.0 | 16.0 | 0.00 | 0.00 | 0.00 | 37 | 1017.9 |
| 20260502163042 | 58 | 271 | 11.0 | 16.0 | 0.00 | 0.00 | 0.00 | 38 | 1018.0 |
| 20260502162509 | 58 | 282 | 7.0 | 20.0 | 0.00 | 0.00 | 0.00 | 38 | 1018.0 |
| 20260502162006 | 58 | 273 | 13.0 | 20.0 | 0.00 | 0.00 | 0.00 | 38 | 1018.1 |
| 20260502161521 | 57 | 249 | 11.0 | 16.0 | 0.00 | 0.00 | 0.00 | 37 | 1018.1 |
| 20260502161012 | 57 | 224 | 7.0 | 16.0 | 0.00 | 0.00 | 0.00 | 37 | 1018.1 |
| 20260502160513 | 56 | 275 | 8.0 | 16.0 | 0.00 | 0.00 | 0.00 | 37 | 1018.3 |
| 20260502152011 | 55 | 295 | 7.0 | 14.0 | 0.00 | 0.00 | 0.00 | 40 | 1018.5 |
| 20260502151521 | 55 | 257 | 8.0 | 14.0 | 0.00 | 0.00 | 0.00 | 40 | 1018.5 |
| 20260502151006 | 55 | 243 | 10.0 | 15.0 | 0.00 | 0.00 | 0.00 | 40 | 1018.6 |
| 20260502150511 | 55 | 262 | 11.0 | 15.0 | 0.00 | 0.00 | 0.00 | 42 | 1018.7 |
| 20260502130506 | 42 | 267 | 6.0 | 9.0 | 0.00 | 0.00 | 0.00 | 71 | 1019.2 |
| 20260502123511 | 36 | 272 | 3.0 | 7.0 | 0.00 | 0.00 | 0.00 | 80 | 1019.1 |
| 20260502123017 | 35 | 254 | 4.0 | 6.0 | 0.00 | 0.00 | 0.00 | 81 | 1019.1 |
| 20260502122508 | 35 | 262 | 3.0 | 4.0 | 0.00 | 0.00 | 0.00 | 81 | 1019.1 |
| 20260502122010 | 34 | 257 | 2.0 | 4.0 | 0.00 | 0.00 | 0.00 | 80 | 1019.1 |
| 20260502121527 | 33 | 259 | 2.0 | 4.0 | 0.00 | 0.00 | 0.00 | 81 | 1019.1 |
| 20260502121010 | 33 | 263 | 0.0 | 3.0 | 0.00 | 0.00 | 0.00 | 83 | 1019.1 |
| 20260502120508 | 32 | 254 | 0.0 | 3.0 | 0.00 | 0.00 | 0.00 | 83 | 1019.1 |
| 20260502115508 | 31 | 257 | 2.0 | 3.0 | 0.00 | 0.00 | 0.00 | 85 | 1019.0 |
| 20260502115009 | 31 | 292 | 0.0 | 2.0 | 0.00 | 0.00 | 0.00 | 86 | 1019.0 |
| 20260502114522 | 31 | 288 | 0.0 | 3.0 | 0.00 | 0.00 | 0.00 | 87 | 1018.9 |
| 20260502114010 | 31 | 277 | 1.0 | 3.0 | 0.00 | 0.00 | 0.00 | 87 | 1018.9 |
| 20260502113511 | 31 | 273 | 2.0 | 3.0 | 0.00 | 0.00 | 0.00 | 87 | 1018.9 |
| 20260502113024 | 30 | 286 | 1.0 | 4.0 | 0.00 | 0.00 | 0.00 | 87 | 1018.8 |
| 20260502112508 | 30 | 284 | 2.0 | 4.0 | 0.00 | 0.00 | 0.00 | 86 | 1018.8 |
| 20260502112006 | 30 | 288 | 2.0 | 4.0 | 0.00 | 0.00 | 0.00 | 85 | 1018.7 |
| 20260502111521 | 30 | 290 | 2.0 | 4.0 | 0.00 | 0.00 | 0.00 | 85 | 1018.7 |
| 20260502111008 | 31 | 284 | 2.0 | 4.0 | 0.00 | 0.00 | 0.00 | 85 | 1018.7 |
| 20260502110509 | 31 | 261 | 0.0 | 0.0 | 0.00 | 0.00 | 0.00 | 85 | 1018.6 |
| 20260502110019 | 31 | 261 | 0.0 | 0.0 | 0.00 | 0.00 | 0.00 | 85 | 1018.6 |
| 20260502105508 | 31 | 261 | 0.0 | 0.0 | 0.00 | 0.00 | 0.00 | 85 | 1018.6 |
| 20260502105007 | 31 | 261 | 0.0 | 0.0 | 0.00 | 0.00 | 0.00 | 85 | 1018.5 |
| 20260502104523 | 31 | 261 | 0.0 | 0.0 | 0.00 | 0.00 | 0.00 | 85 | 1018.5 |
| 20260502104010 | 31 | 261 | 0.0 | 0.0 | 0.00 | 0.00 | 0.00 | 85 | 1018.5 |
| 20260502103513 | 31 | 261 | 0.0 | 0.0 | 0.00 | 0.00 | 0.00 | 85 | 1018.5 |
| 20260502103026 | 31 | 261 | 0.0 | 0.0 | 0.00 | 0.00 | 0.00 | 85 | 1018.5 |
| 20260502102511 | 31 | 261 | 0.0 | 0.0 | 0.00 | 0.00 | 0.00 | 85 | 1018.5 |
| 20260502102011 | 31 | 261 | 0.0 | 0.0 | 0.00 | 0.00 | 0.00 | 85 | 1018.5 |
| 20260502101525 | 31 | 261 | 0.0 | 0.0 | 0.00 | 0.00 | 0.00 | 84 | 1018.5 |
| 20260502101010 | 31 | 261 | 0.0 | 0.0 | 0.00 | 0.00 | 0.00 | 84 | 1018.5 |
| 20260502100510 | 31 | 261 | 0.0 | 0.0 | 0.00 | 0.00 | 0.00 | 84 | 1018.5 |
| 20260502091522 | 32 | 261 | 0.0 | 2.0 | 0.00 | 0.00 | 0.00 | 86 | 1018.4 |
| 20260502091010 | 32 | 261 | 2.0 | 3.0 | 0.00 | 0.00 | 0.00 | 87 | 1018.4 |
| 20260502090509 | 32 | 265 | 2.0 | 4.0 | 0.00 | 0.00 | 0.00 | 87 | 1018.4 |
| 20260502071520 | 32 | 20 | 0.0 | 0.0 | 0.00 | 0.00 | 0.00 | 84 | 1018.7 |
| 20260502071012 | 32 | 20 | 0.0 | 0.0 | 0.00 | 0.00 | 0.00 | 84 | 1018.7 |
| 20260502070518 | 32 | 20 | 0.0 | 0.0 | 0.00 | 0.00 | 0.00 | 83 | 1018.7 |
| 20260502070036 | 32 | 20 | 0.0 | 0.0 | 0.00 | 0.00 | 0.00 | 83 | 1018.8 |
| 20260502065509 | 32 | 21 | 0.0 | 0.0 | 0.00 | 0.00 | 0.00 | 83 | 1018.8 |
| 20260502065010 | 32 | 20 | 0.0 | 0.0 | 0.00 | 0.00 | 0.00 | 83 | 1018.8 |
| 20260502064537 | 32 | 20 | 0.0 | 0.0 | 0.00 | 0.00 | 0.00 | 82 | 1018.9 |
| 20260502064006 | 33 | 20 | 0.0 | 0.0 | 0.00 | 0.00 | 0.00 | 82 | 1018.9 |
| 20260502063512 | 33 | 54 | 0.0 | 0.0 | 0.00 | 0.00 | 0.00 | 81 | 1018.9 |
| 20260502063018 | 33 | 54 | 0.0 | 0.0 | 0.00 | 0.00 | 0.00 | 81 | 1019.0 |
| 20260502062508 | 33 | 54 | 0.0 | 0.0 | 0.00 | 0.00 | 0.00 | 81 | 1018.9 |
| 20260502061522 | 33 | 54 | 0.0 | 0.0 | 0.00 | 0.00 | 0.00 | 80 | 1018.9 |
| 20260502060507 | 33 | 54 | 0.0 | 0.0 | 0.00 | 0.00 | 0.00 | 79 | 1018.9 |
| 20260502055509 | 33 | 54 | 0.0 | 0.0 | 0.00 | 0.00 | 0.00 | 79 | 1018.9 |
| 20260502055010 | 34 | 54 | 0.0 | 0.0 | 0.00 | 0.00 | 0.00 | 79 | 1018.9 |
| 20260502054520 | 34 | 54 | 0.0 | 0.0 | 0.00 | 0.00 | 0.00 | 78 | 1018.9 |
| 20260502054009 | 34 | 54 | 0.0 | 0.0 | 0.00 | 0.00 | 0.00 | 77 | 1018.9 |
| 20260502053508 | 34 | 54 | 0.0 | 0.0 | 0.00 | 0.00 | 0.00 | 76 | 1019.0 |
| 20260502053029 | 34 | 54 | 0.0 | 0.0 | 0.00 | 0.00 | 0.00 | 75 | 1018.9 |
| 20260502052507 | 34 | 54 | 0.0 | 0.0 | 0.00 | 0.00 | 0.00 | 76 | 1019.0 |
| 20260502052016 | 34 | 54 | 0.0 | 0.0 | 0.00 | 0.00 | 0.00 | 76 | 1018.9 |
| 20260502051519 | 34 | 54 | 0.0 | 0.0 | 0.00 | 0.00 | 0.00 | 75 | 1019.0 |
| 20260502051008 | 34 | 54 | 0.0 | 0.0 | 0.00 | 0.00 | 0.00 | 74 | 1019.0 |
| 20260502050511 | 34 | 54 | 0.0 | 0.0 | 0.00 | 0.00 | 0.00 | 75 | 1019.0 |
| 20260502050020 | 35 | 54 | 0.0 | 0.0 | 0.00 | 0.00 | 0.00 | 75 | 1019.1 |
| 20260502045510 | 35 | 54 | 0.0 | 0.0 | 0.00 | 0.00 | 0.00 | 73 | 1019.0 |
| 20260502045011 | 35 | 54 | 0.0 | 0.0 | 0.00 | 0.00 | 0.00 | 74 | 1019.0 |
| 20260502044522 | 35 | 54 | 0.0 | 0.0 | 0.00 | 0.00 | 0.00 | 73 | 1019.0 |
| 20260502044008 | 35 | 54 | 0.0 | 0.0 | 0.00 | 0.00 | 0.00 | 73 | 1019.0 |
| 20260502043508 | 35 | 54 | 0.0 | 0.0 | 0.00 | 0.00 | 0.00 | 73 | 1019.1 |
| 20260502043024 | 35 | 54 | 0.0 | 0.0 | 0.00 | 0.00 | 0.00 | 73 | 1019.1 |
| 20260502042511 | 36 | 54 | 0.0 | 0.0 | 0.00 | 0.00 | 0.00 | 72 | 1019.0 |
| 20260502042010 | 36 | 54 | 0.0 | 0.0 | 0.00 | 0.00 | 0.00 | 70 | 1018.9 |
| 20260502041525 | 36 | 54 | 0.0 | 0.0 | 0.00 | 0.00 | 0.00 | 70 | 1018.9 |
| 20260502041008 | 36 | 54 | 0.0 | 0.0 | 0.00 | 0.00 | 0.00 | 72 | 1018.9 |
| 20260502040510 | 36 | 54 | 0.0 | 0.0 | 0.00 | 0.00 | 0.00 | 70 | 1019.0 |
| 20260502040017 | 36 | 54 | 0.0 | 0.0 | 0.00 | 0.00 | 0.00 | 70 | 1019.1 |
| 20260502035510 | 37 | 54 | 0.0 | 0.0 | 0.00 | 0.00 | 0.00 | 69 | 1019.1 |
| 20260502035011 | 37 | 54 | 0.0 | 0.0 | 0.00 | 0.00 | 0.00 | 69 | 1019.2 |
| 20260502034535 | 37 | 54 | 0.0 | 0.0 | 0.00 | 0.00 | 0.00 | 67 | 1019.2 |
| 20260502034010 | 37 | 54 | 0.0 | 0.0 | 0.00 | 0.00 | 0.00 | 68 | 1019.2 |
| 20260502033510 | 38 | 54 | 0.0 | 0.0 | 0.00 | 0.00 | 0.00 | 67 | 1019.2 |
| 20260502033025 | 38 | 54 | 0.0 | 0.0 | 0.00 | 0.00 | 0.00 | 67 | 1019.2 |
| 20260502032509 | 38 | 54 | 0.0 | 0.0 | 0.00 | 0.00 | 0.00 | 66 | 1019.2 |
| 20260502032012 | 38 | 54 | 0.0 | 0.0 | 0.00 | 0.00 | 0.00 | 65 | 1019.2 |
| 20260502031527 | 38 | 54 | 0.0 | 0.0 | 0.00 | 0.00 | 0.00 | 65 | 1019.2 |
| 20260502031011 | 39 | 54 | 0.0 | 0.0 | 0.00 | 0.00 | 0.00 | 64 | 1019.1 |
| 20260502030510 | 39 | 54 | 0.0 | 0.0 | 0.00 | 0.00 | 0.00 | 64 | 1019.1 |
| 20260502030026 | 39 | 39 | 0.0 | 0.0 | 0.00 | 0.00 | 0.00 | 64 | 1019.1 |
| 20260502025508 | 39 | 39 | 0.0 | 0.0 | 0.00 | 0.00 | 0.00 | 63 | 1019.1 |
| 20260502025009 | 40 | 39 | 0.0 | 0.0 | 0.00 | 0.00 | 0.00 | 62 | 1019.1 |
| 20260502024520 | 40 | 39 | 0.0 | 0.0 | 0.00 | 0.00 | 0.00 | 63 | 1019.0 |
| 20260502024011 | 40 | 39 | 0.0 | 0.0 | 0.00 | 0.00 | 0.00 | 63 | 1019.0 |
| 20260502023511 | 41 | 39 | 0.0 | 0.0 | 0.00 | 0.00 | 0.00 | 61 | 1018.9 |
| 20260502023020 | 41 | 39 | 0.0 | 0.0 | 0.00 | 0.00 | 0.00 | 58 | 1018.9 |
| 20260502022509 | 42 | 350 | 0.0 | 0.0 | 0.00 | 0.00 | 0.00 | 56 | 1018.9 |
| 20260502022009 | 42 | 350 | 0.0 | 0.0 | 0.00 | 0.00 | 0.00 | 56 | 1018.9 |
| 20260502021524 | 43 | 350 | 0.0 | 0.0 | 0.00 | 0.00 | 0.00 | 58 | 1018.8 |
| 20260502021009 | 43 | 350 | 0.0 | 0.0 | 0.00 | 0.00 | 0.00 | 54 | 1018.8 |
| 20260502020511 | 44 | 350 | 0.0 | 0.0 | 0.00 | 0.00 | 0.00 | 54 | 1018.8 |
| 20260502020028 | 44 | 350 | 0.0 | 0.0 | 0.00 | 0.00 | 0.00 | 52 | 1018.7 |
| 20260502015509 | 45 | 350 | 0.0 | 0.0 | 0.00 | 0.00 | 0.00 | 51 | 1018.7 |
| 20260502015010 | 46 | 350 | 0.0 | 0.0 | 0.00 | 0.00 | 0.00 | 50 | 1018.7 |
| 20260502014547 | 46 | 350 | 0.0 | 0.0 | 0.00 | 0.00 | 0.00 | 49 | 1018.6 |
| 20260502014010 | 47 | 350 | 0.0 | 0.0 | 0.00 | 0.00 | 0.00 | 49 | 1018.5 |
| 20260502013506 | 48 | 350 | 0.0 | 0.0 | 0.00 | 0.00 | 0.00 | 48 | 1018.5 |
| 20260502013021 | 48 | 350 | 0.0 | 0.0 | 0.00 | 0.00 | 0.00 | 47 | 1018.5 |
| 20260502012509 | 49 | 350 | 0.0 | 0.0 | 0.00 | 0.00 | 0.00 | 47 | 1018.4 |
| 20260502012007 | 50 | 350 | 0.0 | 0.0 | 0.00 | 0.00 | 0.00 | 1018.4 | |
| 20260502011523 | 50 | 350 | 0.0 | 0.0 | 0.00 | 0.00 | 0.00 | 46 | 1018.4 |
| 20260502011010 | 51 | 350 | 0.0 | 2.0 | 0.00 | 0.00 | 0.00 | 46 | 1018.4 |
| 20260502010511 | 51 | 350 | 0.0 | 4.0 | 0.00 | 0.00 | 0.00 | 42 | 1018.4 |
| 20260502010022 | 51 | 350 | 1.0 | 4.0 | 0.00 | 0.00 | 0.00 | 37 | 1018.4 |
| 20260502005510 | 52 | 16 | 0.0 | 2.0 | 0.00 | 0.00 | 0.00 | 41 | 1018.4 |
| 20260502005011 | 52 | 16 | 0.0 | 2.0 | 0.00 | 0.00 | 0.00 | 39 | 1018.4 |
| 20260502004505 | 52 | 15 | 0.0 | 2.0 | 0.00 | 0.00 | 0.00 | 36 | 1018.4 |
| 20260502003503 | 52 | 21 | 1.0 | 2.0 | 0.00 | 0.00 | 0.00 | 33 | 1018.4 |
| 20260502003003 | 52 | 18 | 0.0 | 2.0 | 0.00 | 0.00 | 0.00 | 34 | 1018.4 |
| 20260502002503 | 52 | 5 | 0.0 | 2.0 | 0.00 | 0.00 | 0.00 | 35 | 1018.4 |
| 20260502002003 | 52 | 40 | 0.0 | 6.0 | 0.00 | 0.00 | 0.00 | 34 | 1018.4 |
| 20260502001510 | 52 | 52 | 2.0 | 7.0 | 0.00 | 0.00 | 0.00 | 32 | 1018.4 |
| 20260502001004 | 53 | 64 | 3.0 | 7.0 | 0.00 | 0.00 | 0.00 | 32 | 1018.4 |
| 20260502000503 | 53 | 74 | 4.0 | 6.0 | 0.00 | 0.00 | 0.00 | 31 | 1018.3 |
| 20260502000024 | 53 | 5 | 2.0 | 10.0 | 0.00 | 0.00 | 0.00 | 32 | 1018.3 |
| 20260501235502 | 53 | 22 | 3.0 | 10.0 | 0.00 | 0.00 | 0.00 | 31 | 1018.4 |